createdAt,value
2023-04-16T00:00:29.654Z,14.81
2023-04-16T00:01:32.581Z,14.86
2023-04-16T00:02:37.125Z,14.62
2023-04-16T00:03:39.812Z,14.78
2023-04-16T00:04:44.565Z,14.97
2023-04-16T00:05:47.403Z,14.66
2023-04-16T00:06:52.475Z,14.55
2023-04-16T00:07:55.500Z,14.41
2023-04-16T00:09:00.414Z,14.73
2023-04-16T00:10:04.100Z,14.89
2023-04-16T00:11:09.592Z,14.87
2023-04-16T00:12:12.793Z,14.85
2023-04-16T00:13:18.243Z,14.93
2023-04-16T00:14:20.924Z,14.90
2023-04-16T00:15:25.552Z,14.87
2023-04-16T00:16:28.439Z,14.50
2023-04-16T00:17:33.001Z,14.73
2023-04-16T00:18:36.325Z,14.96
2023-04-16T00:19:40.585Z,14.96
2023-04-16T00:20:45.410Z,14.78
2023-04-16T00:21:49.144Z,14.88
2023-04-16T00:22:56.428Z,14.91
2023-04-16T00:24:00.692Z,14.96
2023-04-16T00:25:06.431Z,14.99
2023-04-16T00:26:10.650Z,14.31
2023-04-16T00:27:13.613Z,14.38
2023-04-16T00:28:18.695Z,14.37
2023-04-16T00:29:22.791Z,14.04
2023-04-16T00:30:25.203Z,13.92
2023-04-16T00:31:30.692Z,13.89
2023-04-16T00:32:33.331Z,14.05
2023-04-16T00:33:36.895Z,13.68
2023-04-16T00:34:39.877Z,13.28
2023-04-16T00:35:43.491Z,13.20
2023-04-16T00:36:46.377Z,13.29
2023-04-16T00:37:49.981Z,13.27
2023-04-16T00:38:52.491Z,13.63
2023-04-16T00:39:56.446Z,13.66
2023-04-16T00:40:59.868Z,13.73
2023-04-16T00:42:03.814Z,13.97
2023-04-16T00:43:06.807Z,13.92
2023-04-16T00:44:12.354Z,13.39
2023-04-16T00:45:15.267Z,13.45
2023-04-16T00:46:20.334Z,13.27
2023-04-16T00:47:23.428Z,13.18
2023-04-16T00:48:28.703Z,13.42
2023-04-16T00:49:31.881Z,13.27
2023-04-16T00:50:36.105Z,12.96
2023-04-16T00:51:38.709Z,13.13
2023-04-16T00:52:42.492Z,12.93
2023-04-16T00:53:46.837Z,12.82
2023-04-16T00:54:50.872Z,12.98
2023-04-16T00:55:54.090Z,13.02
2023-04-16T00:56:59.076Z,13.06
2023-04-16T00:58:01.992Z,13.14
2023-04-16T00:59:07.311Z,12.97
2023-04-16T01:00:13.839Z,13.00
2023-04-16T01:01:17.797Z,12.77
2023-04-16T01:02:20.466Z,12.78
2023-04-16T01:03:24.889Z,12.81
2023-04-16T01:04:28.399Z,12.80
2023-04-16T01:05:33.937Z,12.83
2023-04-16T01:06:37.145Z,12.89
2023-04-16T01:07:40.610Z,13.10
2023-04-16T01:08:43.632Z,13.24
2023-04-16T01:09:47.291Z,13.32
2023-04-16T01:10:49.689Z,13.40
2023-04-16T01:11:53.337Z,13.58
2023-04-16T01:12:55.894Z,13.53
2023-04-16T01:13:59.158Z,13.50
2023-04-16T01:15:01.715Z,13.34
2023-04-16T01:16:07.455Z,13.08
2023-04-16T01:17:10.048Z,13.03
2023-04-16T01:18:17.109Z,12.97
2023-04-16T01:19:19.323Z,12.93
2023-04-16T01:20:22.755Z,13.21
2023-04-16T01:21:26.704Z,13.33
2023-04-16T01:22:30.066Z,13.22
2023-04-16T01:23:32.635Z,13.00
2023-04-16T01:24:36.961Z,12.97
2023-04-16T01:25:39.557Z,13.01
2023-04-16T01:26:43.241Z,12.86
2023-04-16T01:27:45.918Z,12.72
2023-04-16T01:28:49.428Z,12.65
2023-04-16T01:29:51.777Z,12.78
2023-04-16T01:30:55.048Z,12.74
2023-04-16T01:31:57.477Z,12.90
2023-04-16T01:33:01.110Z,12.88
2023-04-16T01:34:03.423Z,12.90
2023-04-16T01:35:07.537Z,13.05
2023-04-16T01:36:18.709Z,12.94
2023-04-16T01:37:22.785Z,12.90
2023-04-16T01:38:44.730Z,12.91
2023-04-16T01:39:47.418Z,12.68
2023-04-16T01:40:51.592Z,12.52
2023-04-16T01:41:55.074Z,12.48
2023-04-16T01:42:59.530Z,12.69
2023-04-16T01:44:02.028Z,12.81
2023-04-16T01:45:06.630Z,12.69
2023-04-16T01:46:15.208Z,12.89
2023-04-16T01:47:18.778Z,12.78
2023-04-16T01:48:21.340Z,12.92
2023-04-16T01:49:25.112Z,12.98
2023-04-16T01:50:27.646Z,12.98
2023-04-16T01:51:31.381Z,12.90
2023-04-16T01:52:33.720Z,12.56
2023-04-16T01:53:37.513Z,12.65
2023-04-16T01:54:41.810Z,12.76
2023-04-16T01:55:45.149Z,12.75
2023-04-16T01:56:47.948Z,12.85
2023-04-16T01:57:52.233Z,12.86
2023-04-16T01:58:54.681Z,12.75
2023-04-16T01:59:58.434Z,12.96
2023-04-16T02:01:01.080Z,13.00
2023-04-16T02:02:11.328Z,13.11
2023-04-16T02:03:13.972Z,13.24
2023-04-16T02:04:17.947Z,13.11
2023-04-16T02:05:20.803Z,13.14
2023-04-16T02:06:24.794Z,13.09
2023-04-16T02:07:27.678Z,13.09
2023-04-16T02:08:31.359Z,13.23
2023-04-16T02:09:37.113Z,13.25
2023-04-16T02:10:41.962Z,13.42
2023-04-16T02:11:44.331Z,13.48
2023-04-16T02:12:47.975Z,13.41
2023-04-16T02:13:50.413Z,13.48
2023-04-16T02:14:53.762Z,13.37
2023-04-16T02:15:56.233Z,13.24
2023-04-16T02:16:59.917Z,13.29
2023-04-16T02:18:02.892Z,13.21
2023-04-16T02:19:07.286Z,13.16
2023-04-16T02:20:10.994Z,13.10
2023-04-16T02:21:14.907Z,13.07
2023-04-16T02:22:17.522Z,13.22
2023-04-16T02:23:21.579Z,13.43
2023-04-16T02:24:24.308Z,13.39
2023-04-16T02:25:27.949Z,13.28
2023-04-16T02:26:31.577Z,13.20
2023-04-16T02:27:35.019Z,13.26
2023-04-16T02:28:37.776Z,13.48
2023-04-16T02:29:42.499Z,13.38
2023-04-16T02:30:45.902Z,13.62
2023-04-16T02:31:50.412Z,13.90
2023-04-16T02:32:53.306Z,13.79
2023-04-16T02:33:56.924Z,13.39
2023-04-16T02:34:59.458Z,13.34
2023-04-16T02:36:02.994Z,13.51
2023-04-16T02:37:05.603Z,13.47
2023-04-16T02:38:10.165Z,13.68
2023-04-16T02:39:12.833Z,13.76
2023-04-16T02:40:16.733Z,13.55
2023-04-16T02:41:19.422Z,13.54
2023-04-16T02:42:24.493Z,12.94
2023-04-16T02:43:27.749Z,12.97
2023-04-16T02:44:31.908Z,12.91
2023-04-16T02:45:34.864Z,12.80
2023-04-16T02:46:38.310Z,12.77
2023-04-16T02:47:41.718Z,12.73
2023-04-16T02:48:46.424Z,12.82
2023-04-16T02:49:49.046Z,12.81
2023-04-16T02:50:52.634Z,12.70
2023-04-16T02:51:55.293Z,12.78
2023-04-16T02:52:59.199Z,12.86
2023-04-16T02:54:03.273Z,12.97
2023-04-16T02:55:07.511Z,12.89
2023-04-16T02:56:10.225Z,12.79
2023-04-16T02:57:13.715Z,12.63
2023-04-16T02:58:17.570Z,12.67
2023-04-16T02:59:22.071Z,12.85
2023-04-16T03:00:25.763Z,12.85
2023-04-16T03:01:29.153Z,12.73
2023-04-16T03:02:32.970Z,12.88
2023-04-16T03:03:36.990Z,12.69
2023-04-16T03:04:39.914Z,12.38
2023-04-16T03:05:43.583Z,12.23
2023-04-16T03:06:46.396Z,12.07
2023-04-16T03:07:50.947Z,12.05
2023-04-16T03:08:53.684Z,12.25
2023-04-16T03:09:57.376Z,12.36
2023-04-16T03:11:00.170Z,12.27
2023-04-16T03:12:03.754Z,12.42
2023-04-16T03:13:06.297Z,12.50
2023-04-16T03:14:11.294Z,12.33
2023-04-16T03:15:13.670Z,12.49
2023-04-16T03:16:18.244Z,12.63
2023-04-16T03:17:21.070Z,12.50
2023-04-16T03:18:24.307Z,12.42
2023-04-16T03:19:26.820Z,12.67
2023-04-16T03:20:30.175Z,12.85
2023-04-16T03:21:32.714Z,12.57
2023-04-16T03:22:37.082Z,12.82
2023-04-16T03:23:39.547Z,12.81
2023-04-16T03:24:43.286Z,12.82
2023-04-16T03:25:48.268Z,12.87
2023-04-16T03:26:51.927Z,12.96
2023-04-16T03:27:54.264Z,12.99
2023-04-16T03:28:57.719Z,13.07
2023-04-16T03:30:01.726Z,12.79
2023-04-16T03:31:05.394Z,12.50
2023-04-16T03:32:08.104Z,12.58
2023-04-16T03:33:11.724Z,12.47
2023-04-16T03:34:14.075Z,12.44
2023-04-16T03:35:17.390Z,12.38
2023-04-16T03:36:20.958Z,12.36
2023-04-16T03:37:23.386Z,12.41
2023-04-16T03:38:27.246Z,12.50
2023-04-16T03:39:29.442Z,12.67
2023-04-16T03:40:32.946Z,12.66
2023-04-16T03:41:35.317Z,12.64
2023-04-16T03:42:38.922Z,12.69
2023-04-16T03:43:41.362Z,12.63
2023-04-16T03:44:44.856Z,12.71
2023-04-16T03:45:48.826Z,12.48
2023-04-16T03:46:52.369Z,12.47
2023-04-16T03:47:54.721Z,12.60
2023-04-16T03:48:58.085Z,12.44
2023-04-16T03:50:00.728Z,12.62
2023-04-16T03:51:04.126Z,12.43
2023-04-16T03:52:06.574Z,12.26
2023-04-16T03:53:10.265Z,12.39
2023-04-16T03:54:12.911Z,12.45
2023-04-16T03:55:16.527Z,12.42
2023-04-16T03:56:19.252Z,12.39
2023-04-16T03:57:22.651Z,12.31
2023-04-16T03:58:25.154Z,12.56
2023-04-16T03:59:28.572Z,12.47
2023-04-16T04:00:31.612Z,12.60
2023-04-16T04:01:36.965Z,12.47
2023-04-16T04:02:39.884Z,12.32
2023-04-16T04:03:43.710Z,12.47
2023-04-16T04:04:46.759Z,12.75
2023-04-16T04:05:50.582Z,12.57
2023-04-16T04:06:52.949Z,12.69
2023-04-16T04:07:56.653Z,12.64
2023-04-16T04:08:59.209Z,12.74
2023-04-16T04:10:03.101Z,12.49
2023-04-16T04:11:05.818Z,12.24
2023-04-16T04:12:10.232Z,12.19
2023-04-16T04:13:12.699Z,12.31
2023-04-16T04:14:16.143Z,12.03
2023-04-16T04:15:18.613Z,11.98
2023-04-16T04:16:22.105Z,12.17
2023-04-16T04:17:26.007Z,11.94
2023-04-16T04:18:29.685Z,11.81
2023-04-16T04:19:32.039Z,11.78
2023-04-16T04:20:35.336Z,11.69
2023-04-16T04:21:37.943Z,11.83
2023-04-16T04:22:41.639Z,11.73
2023-04-16T04:23:44.060Z,11.87
2023-04-16T04:24:47.484Z,11.69
2023-04-16T04:25:50.131Z,11.99
2023-04-16T04:26:53.649Z,12.21
2023-04-16T04:27:57.075Z,11.63
2023-04-16T04:28:59.408Z,11.68
2023-04-16T04:30:03.714Z,11.62
2023-04-16T04:31:06.407Z,11.43
2023-04-16T04:32:09.932Z,11.34
2023-04-16T04:33:15.354Z,11.35
2023-04-16T04:34:18.743Z,11.43
2023-04-16T04:35:21.194Z,11.50
2023-04-16T04:36:24.638Z,11.38
2023-04-16T04:37:27.027Z,11.71
2023-04-16T04:38:31.387Z,11.82
2023-04-16T04:39:34.072Z,11.74
2023-04-16T04:40:37.737Z,12.01
2023-04-16T04:41:40.810Z,12.00
2023-04-16T04:42:44.410Z,11.97
2023-04-16T04:43:47.030Z,11.98
2023-04-16T04:44:50.747Z,11.83
2023-04-16T04:45:53.440Z,11.88
2023-04-16T04:46:57.117Z,11.73
2023-04-16T04:47:59.516Z,11.85
2023-04-16T04:49:05.197Z,11.75
2023-04-16T04:50:08.491Z,11.74
2023-04-16T04:51:12.057Z,11.71
2023-04-16T04:52:15.015Z,11.66
2023-04-16T04:53:18.404Z,11.44
2023-04-16T04:54:20.715Z,11.40
2023-04-16T04:55:24.248Z,11.22
2023-04-16T04:56:26.640Z,11.48
2023-04-16T04:57:30.526Z,11.46
2023-04-16T04:58:32.818Z,11.38
2023-04-16T04:59:36.871Z,11.70
2023-04-16T05:00:39.450Z,11.93
2023-04-16T05:01:42.992Z,11.89
2023-04-16T05:02:45.891Z,12.03
2023-04-16T05:03:49.417Z,11.99
2023-04-16T05:04:53.807Z,11.99
2023-04-16T05:05:57.350Z,11.93
2023-04-16T05:06:59.805Z,11.95
2023-04-16T05:08:03.296Z,12.17
2023-04-16T05:09:06.047Z,12.22
2023-04-16T05:10:10.979Z,12.10
2023-04-16T05:11:13.463Z,11.88
2023-04-16T05:12:16.797Z,11.83
2023-04-16T05:13:19.171Z,11.75
2023-04-16T05:14:22.677Z,11.88
2023-04-16T05:15:25.008Z,11.88
2023-04-16T05:16:28.825Z,11.79
2023-04-16T05:17:31.579Z,11.76
2023-04-16T05:18:34.897Z,11.67
2023-04-16T05:19:37.161Z,11.65
2023-04-16T05:20:42.227Z,11.81
2023-04-16T05:21:44.591Z,11.78
2023-04-16T05:22:48.145Z,11.86
2023-04-16T05:23:50.508Z,12.05
2023-04-16T05:24:54.449Z,11.92
2023-04-16T05:25:57.011Z,12.00
2023-04-16T05:27:00.511Z,12.12
2023-04-16T05:28:03.191Z,12.04
2023-04-16T05:29:06.824Z,11.81
2023-04-16T05:30:10.148Z,11.57
2023-04-16T05:31:14.197Z,11.69
2023-04-16T05:32:17.357Z,11.77
2023-04-16T05:33:21.388Z,11.78
2023-04-16T05:34:25.408Z,11.78
2023-04-16T05:35:29.293Z,11.93
2023-04-16T05:36:33.198Z,12.05
2023-04-16T05:37:36.624Z,12.11
2023-04-16T05:38:39.289Z,11.98
2023-04-16T05:39:42.820Z,12.23
2023-04-16T05:40:45.148Z,12.03
2023-04-16T05:41:48.681Z,11.84
2023-04-16T05:42:51.213Z,12.03
2023-04-16T05:43:54.541Z,12.11
2023-04-16T05:44:56.833Z,12.11
2023-04-16T05:46:00.356Z,12.21
2023-04-16T05:47:02.745Z,12.16
2023-04-16T05:48:06.396Z,12.46
2023-04-16T05:49:09.084Z,12.39
2023-04-16T05:50:13.198Z,12.19
2023-04-16T05:51:15.674Z,12.35
2023-04-16T05:52:20.973Z,12.39
2023-04-16T05:53:23.947Z,12.43
2023-04-16T05:54:27.318Z,12.63
2023-04-16T05:55:30.818Z,12.37
2023-04-16T05:56:34.348Z,12.45
2023-04-16T05:57:36.868Z,12.68
2023-04-16T05:58:40.240Z,12.46
2023-04-16T05:59:42.615Z,12.63
2023-04-16T06:00:46.475Z,12.72
2023-04-16T06:01:49.054Z,12.75
2023-04-16T06:02:53.183Z,12.61
2023-04-16T06:03:56.130Z,12.52
2023-04-16T06:04:59.799Z,12.57
2023-04-16T06:06:03.095Z,12.77
2023-04-16T06:07:07.269Z,12.83
2023-04-16T06:08:11.800Z,12.91
2023-04-16T06:09:15.964Z,13.14
2023-04-16T06:10:18.582Z,13.27
2023-04-16T06:11:22.483Z,13.18
2023-04-16T06:12:26.866Z,13.34
2023-04-16T06:13:29.636Z,13.40
2023-04-16T06:14:33.309Z,13.40
2023-04-16T06:15:35.842Z,13.41
2023-04-16T06:16:39.411Z,13.50
2023-04-16T06:17:42.320Z,13.08
2023-04-16T06:18:46.125Z,13.31
2023-04-16T06:19:48.892Z,13.35
2023-04-16T06:20:53.014Z,13.44
2023-04-16T06:21:56.754Z,13.57
2023-04-16T06:22:59.154Z,13.65
2023-04-16T06:24:04.240Z,13.78
2023-04-16T06:25:07.613Z,13.83
2023-04-16T06:26:12.321Z,13.92
2023-04-16T06:27:14.904Z,13.86
2023-04-16T06:28:19.675Z,13.91
2023-04-16T06:29:25.914Z,13.82
2023-04-16T06:30:37.248Z,13.85
2023-04-16T06:31:39.983Z,13.78
2023-04-16T06:32:44.608Z,13.71
2023-04-16T06:33:47.702Z,13.94
2023-04-16T06:34:51.397Z,14.07
2023-04-16T06:35:53.971Z,14.19
2023-04-16T06:36:57.618Z,14.25
2023-04-16T06:38:00.183Z,14.42
2023-04-16T06:39:05.351Z,14.55
2023-04-16T06:40:09.104Z,14.53
2023-04-16T06:41:12.723Z,14.38
2023-04-16T06:42:15.365Z,14.40
2023-04-16T06:43:19.514Z,14.34
2023-04-16T06:44:22.057Z,14.30
2023-04-16T06:45:26.140Z,14.17
2023-04-16T06:46:28.780Z,14.23
2023-04-16T06:47:32.624Z,14.23
2023-04-16T06:48:36.003Z,14.15
2023-04-16T06:49:40.239Z,14.35
2023-04-16T06:50:43.094Z,14.40
2023-04-16T06:51:47.372Z,14.44
2023-04-16T06:52:50.196Z,14.63
2023-04-16T06:53:53.670Z,14.69
2023-04-16T06:54:58.087Z,14.82
2023-04-16T06:56:01.580Z,14.89
2023-04-16T06:57:04.452Z,15.02
2023-04-16T06:58:07.834Z,15.15
2023-04-16T06:59:11.584Z,15.26
2023-04-16T07:00:14.569Z,15.45
2023-04-16T07:01:18.849Z,15.53
2023-04-16T07:02:21.554Z,15.56
2023-04-16T07:03:25.092Z,15.62
2023-04-16T07:04:27.646Z,15.71
2023-04-16T07:05:30.983Z,15.75
2023-04-16T07:06:33.278Z,15.98
2023-04-16T07:07:37.310Z,16.12
2023-04-16T07:08:39.644Z,16.51
2023-04-16T07:09:43.134Z,16.78
2023-04-16T07:10:46.859Z,17.21
2023-04-16T07:11:50.625Z,17.79
2023-04-16T07:12:52.928Z,18.25
2023-04-16T07:13:57.811Z,18.41
2023-04-16T07:15:00.274Z,18.48
2023-04-16T07:16:03.714Z,18.86
2023-04-16T07:17:06.363Z,19.44
2023-04-16T07:18:10.216Z,19.51
2023-04-16T07:19:12.543Z,19.11
2023-04-16T07:20:16.618Z,19.04
2023-04-16T07:21:19.254Z,19.24
2023-04-16T07:22:22.813Z,19.35
2023-04-16T07:23:25.818Z,19.59
2023-04-16T07:24:29.206Z,19.49
2023-04-16T07:25:31.555Z,19.84
2023-04-16T07:26:36.788Z,20.29
2023-04-16T07:27:39.515Z,20.30
2023-04-16T07:28:43.128Z,21.00
2023-04-16T07:29:46.524Z,19.56
2023-04-16T07:30:50.303Z,21.08
2023-04-16T07:31:52.663Z,21.35
2023-04-16T07:32:56.624Z,22.01
2023-04-16T07:33:59.889Z,22.15
2023-04-16T07:35:04.202Z,22.39
2023-04-16T07:36:08.007Z,22.56
2023-04-16T07:37:10.678Z,22.94
2023-04-16T07:38:14.824Z,23.03
2023-04-16T07:39:17.233Z,23.44
2023-04-16T07:40:20.689Z,23.43
2023-04-16T07:41:24.485Z,23.23
2023-04-16T07:42:29.705Z,23.11
2023-04-16T07:43:32.132Z,23.01
2023-04-16T07:44:35.655Z,23.04
2023-04-16T07:45:38.320Z,23.33
2023-04-16T07:46:46.972Z,23.38
2023-04-16T07:47:51.205Z,22.95
2023-04-16T07:48:53.913Z,23.22
2023-04-16T07:49:57.454Z,23.12
2023-04-16T07:51:00.172Z,23.38
2023-04-16T07:52:04.646Z,23.02
2023-04-16T07:53:08.701Z,22.63
2023-04-16T07:54:11.336Z,23.09
2023-04-16T07:55:15.059Z,23.19
2023-04-16T07:56:17.368Z,23.02
2023-04-16T07:57:21.310Z,23.47
2023-04-16T07:58:26.747Z,22.27
2023-04-16T07:59:30.756Z,21.84
2023-04-16T08:00:33.489Z,20.76
2023-04-16T08:01:37.109Z,20.10
2023-04-16T08:02:40.883Z,20.19
2023-04-16T08:03:44.013Z,19.89
2023-04-16T08:04:47.892Z,19.73
2023-04-16T08:05:50.564Z,19.51
2023-04-16T08:06:54.548Z,19.36
2023-04-16T08:07:57.058Z,19.57
2023-04-16T08:09:00.455Z,20.24
2023-04-16T08:10:03.692Z,19.89
2023-04-16T08:11:08.294Z,19.62
2023-04-16T08:12:11.416Z,19.61
2023-04-16T08:13:15.133Z,19.62
2023-04-16T08:14:20.771Z,20.40
2023-04-16T08:15:23.436Z,20.91
2023-04-16T08:16:26.845Z,21.09
2023-04-16T08:17:30.761Z,21.05
2023-04-16T08:18:34.946Z,21.28
2023-04-16T08:19:37.460Z,21.72
2023-04-16T08:20:41.026Z,22.01
2023-04-16T08:21:43.880Z,22.45
2023-04-16T08:22:47.927Z,22.32
2023-04-16T08:23:50.947Z,22.36
2023-04-16T08:24:54.677Z,22.24
2023-04-16T08:25:59.646Z,22.38
2023-04-16T08:27:11.444Z,22.08
2023-04-16T08:28:22.608Z,22.82
2023-04-16T08:29:26.741Z,22.89
2023-04-16T08:30:30.196Z,22.71
2023-04-16T08:31:34.155Z,22.73
2023-04-16T08:32:38.563Z,22.12
2023-04-16T08:33:43.631Z,22.50
2023-04-16T08:34:55.619Z,22.18
2023-04-16T08:35:59.359Z,22.47
2023-04-16T08:37:01.977Z,22.48
2023-04-16T08:38:07.567Z,22.01
2023-04-16T08:39:10.168Z,21.85
2023-04-16T08:40:14.851Z,21.38
2023-04-16T08:41:17.369Z,21.09
2023-04-16T08:42:26.593Z,21.12
2023-04-16T08:43:33.768Z,21.23
2023-04-16T08:44:43.091Z,21.09
2023-04-16T08:45:49.350Z,20.86
2023-04-16T08:46:57.390Z,20.67
2023-04-16T08:48:02.164Z,21.06
2023-04-16T08:49:08.319Z,20.83
2023-04-16T08:50:14.760Z,21.28
2023-04-16T08:51:20.847Z,21.34
2023-04-16T08:52:26.280Z,21.65
2023-04-16T08:54:00.605Z,21.74
2023-04-16T08:55:07.247Z,22.13
2023-04-16T08:56:14.490Z,22.37
2023-04-16T08:57:20.254Z,22.14
2023-04-16T08:58:24.863Z,22.22
2023-04-16T08:59:28.990Z,22.22
2023-04-16T09:00:35.707Z,21.90
2023-04-16T09:01:39.842Z,22.13
2023-04-16T09:02:44.180Z,22.35
2023-04-16T09:03:48.791Z,22.77
2023-04-16T09:04:54.086Z,22.42
2023-04-16T09:05:59.324Z,22.64
2023-04-16T09:07:06.044Z,23.08
2023-04-16T09:08:08.784Z,22.53
2023-04-16T09:09:14.013Z,22.96
2023-04-16T09:10:16.641Z,23.32
2023-04-16T09:11:20.337Z,23.05
2023-04-16T09:12:24.242Z,22.80
2023-04-16T09:13:28.458Z,23.11
2023-04-16T09:14:31.540Z,22.85
2023-04-16T09:15:37.837Z,22.91
2023-04-16T09:16:42.513Z,23.03
2023-04-16T09:17:46.329Z,23.22
2023-04-16T09:18:49.006Z,23.13
2023-04-16T09:19:52.558Z,23.19
2023-04-16T09:20:57.304Z,23.24
2023-04-16T09:21:59.709Z,23.47
2023-04-16T09:23:03.768Z,23.27
2023-04-16T09:24:08.372Z,23.15
2023-04-16T09:25:12.296Z,23.14
2023-04-16T09:26:14.641Z,23.04
2023-04-16T09:27:19.260Z,23.01
2023-04-16T09:28:41.350Z,22.60
2023-04-16T09:29:45.852Z,22.14
2023-04-16T09:30:50.796Z,21.59
2023-04-16T09:32:03.208Z,21.09
2023-04-16T09:33:22.609Z,21.59
2023-04-16T09:34:25.800Z,21.62
2023-04-16T09:35:29.447Z,21.26
2023-04-16T09:36:32.947Z,21.26
2023-04-16T09:37:41.651Z,21.59
2023-04-16T09:38:48.236Z,21.66
2023-04-16T09:39:55.890Z,21.76
2023-04-16T09:41:08.541Z,21.69
2023-04-16T09:42:11.531Z,21.99
2023-04-16T09:43:16.613Z,21.83
2023-04-16T09:44:20.664Z,22.00
2023-04-16T09:45:24.990Z,21.23
2023-04-16T09:46:35.154Z,21.42
2023-04-16T09:47:41.970Z,21.40
2023-04-16T09:48:47.476Z,22.22
2023-04-16T09:49:52.071Z,22.38
2023-04-16T09:50:55.538Z,22.30
2023-04-16T09:52:01.195Z,22.42
2023-04-16T09:53:04.906Z,22.33
2023-04-16T09:54:07.875Z,22.10
2023-04-16T09:55:11.514Z,22.16
2023-04-16T09:56:14.723Z,21.57
2023-04-16T09:57:23.205Z,21.57
2023-04-16T09:58:30.597Z,21.94
2023-04-16T09:59:38.078Z,22.16
2023-04-16T10:00:43.697Z,22.26
2023-04-16T10:01:50.071Z,21.96
2023-04-16T10:03:04.112Z,22.04
2023-04-16T10:04:08.366Z,21.94
2023-04-16T10:05:16.967Z,22.14
2023-04-16T10:06:21.980Z,22.76
2023-04-16T10:07:30.256Z,22.79
2023-04-16T10:08:32.833Z,22.55
2023-04-16T10:09:39.436Z,22.42
2023-04-16T10:10:42.885Z,22.29
2023-04-16T10:11:46.572Z,22.09
2023-04-16T10:12:49.139Z,22.00
2023-04-16T10:13:53.100Z,21.63
2023-04-16T10:14:56.658Z,21.41
2023-04-16T10:16:00.442Z,21.17
2023-04-16T10:17:06.479Z,21.39
2023-04-16T10:18:11.099Z,21.49
2023-04-16T10:19:18.140Z,21.57
2023-04-16T10:20:20.894Z,21.48
2023-04-16T10:21:25.312Z,21.11
2023-04-16T10:22:27.695Z,20.93
2023-04-16T10:23:31.466Z,21.10
2023-04-16T10:24:34.698Z,21.03
2023-04-16T10:25:40.866Z,21.15
2023-04-16T10:26:45.095Z,20.79
2023-04-16T10:27:49.404Z,20.73
2023-04-16T10:28:52.209Z,20.79
2023-04-16T10:29:56.783Z,20.68
2023-04-16T10:31:00.153Z,20.84
2023-04-16T10:32:05.541Z,20.48
2023-04-16T10:33:08.777Z,20.45
2023-04-16T10:34:12.911Z,20.45
2023-04-16T10:35:19.350Z,20.22
2023-04-16T10:36:26.573Z,20.19
2023-04-16T10:37:32.294Z,20.66
2023-04-16T10:38:36.724Z,20.74
2023-04-16T10:39:40.602Z,20.91
2023-04-16T10:40:45.777Z,20.93
2023-04-16T10:41:49.526Z,20.70
2023-04-16T10:42:56.574Z,20.79
2023-04-16T10:44:09.846Z,20.94
2023-04-16T10:45:12.475Z,20.44
2023-04-16T10:46:21.706Z,20.67
2023-04-16T10:47:27.652Z,20.68
2023-04-16T10:48:42.132Z,20.37
2023-04-16T10:49:53.229Z,20.64
2023-04-16T10:50:57.904Z,20.53
2023-04-16T10:52:03.870Z,20.67
2023-04-16T10:53:20.466Z,21.08
2023-04-16T10:54:28.421Z,20.94
2023-04-16T10:55:31.258Z,20.93
2023-04-16T10:56:36.247Z,20.72
2023-04-16T10:57:38.477Z,20.23
2023-04-16T10:58:43.058Z,20.33
2023-04-16T10:59:47.079Z,20.51
2023-04-16T11:00:50.666Z,20.50
2023-04-16T11:01:56.562Z,20.24
2023-04-16T11:03:02.164Z,19.92
2023-04-16T11:04:30.516Z,20.10
2023-04-16T11:05:47.157Z,19.99
2023-04-16T11:07:03.621Z,20.15
2023-04-16T11:08:16.183Z,20.23
2023-04-16T11:09:47.829Z,20.33
2023-04-16T11:10:51.685Z,20.73
2023-04-16T11:11:55.622Z,20.50
2023-04-16T11:12:59.735Z,20.80
2023-04-16T11:14:05.185Z,20.35
2023-04-16T11:15:10.410Z,20.28
2023-04-16T11:16:13.913Z,20.38
2023-04-16T11:17:17.932Z,20.39
2023-04-16T11:18:22.941Z,20.43
2023-04-16T11:19:25.392Z,20.07
2023-04-16T11:20:29.974Z,20.17
2023-04-16T11:21:33.813Z,20.21
2023-04-16T11:22:36.792Z,19.89
2023-04-16T11:23:50.419Z,19.73
2023-04-16T11:24:55.851Z,19.84
2023-04-16T11:25:59.406Z,19.75
2023-04-16T11:27:01.900Z,19.49
2023-04-16T11:28:05.146Z,19.63
2023-04-16T11:29:15.303Z,19.79
2023-04-16T11:30:29.226Z,19.57
2023-04-16T11:31:33.239Z,19.69
2023-04-16T11:32:38.148Z,19.49
2023-04-16T11:33:43.223Z,19.39
2023-04-16T11:34:47.245Z,19.53
2023-04-16T11:35:58.116Z,19.78
2023-04-16T11:37:01.527Z,19.95
2023-04-16T11:38:06.161Z,19.82
2023-04-16T11:39:10.054Z,19.34
2023-04-16T11:40:14.473Z,19.64
2023-04-16T11:41:22.037Z,19.58
2023-04-16T11:42:27.364Z,19.29
2023-04-16T11:43:29.720Z,19.49
2023-04-16T11:44:33.554Z,19.57
2023-04-16T11:45:37.349Z,19.53
2023-04-16T11:46:40.204Z,19.58
2023-04-16T11:47:52.051Z,19.36
2023-04-16T11:48:56.533Z,19.42
2023-04-16T11:50:16.382Z,19.32
2023-04-16T11:51:23.393Z,19.32
2023-04-16T11:52:29.032Z,19.48
2023-04-16T11:53:31.843Z,19.18
2023-04-16T11:54:36.909Z,18.96
2023-04-16T11:55:44.802Z,18.95
2023-04-16T11:56:49.404Z,18.94
2023-04-16T11:57:53.480Z,18.62
2023-04-16T11:59:10.346Z,18.81
2023-04-16T12:00:15.361Z,18.94
2023-04-16T12:01:21.698Z,19.09
2023-04-16T12:02:40.178Z,19.31
2023-04-16T12:03:46.636Z,19.31
2023-04-16T12:04:51.886Z,19.21
2023-04-16T12:05:54.398Z,19.43
2023-04-16T12:07:12.130Z,19.59
2023-04-16T12:08:30.923Z,19.39
2023-04-16T12:09:37.034Z,19.23
2023-04-16T12:10:55.202Z,19.07
2023-04-16T12:11:57.585Z,19.13
2023-04-16T12:13:15.439Z,19.44
2023-04-16T12:14:17.922Z,19.44
2023-04-16T12:15:21.268Z,19.35
2023-04-16T12:16:26.472Z,18.90
2023-04-16T12:17:30.165Z,19.30
2023-04-16T12:18:33.884Z,19.63
2023-04-16T12:19:52.665Z,19.11
2023-04-16T12:20:57.326Z,18.90
2023-04-16T12:22:01.417Z,18.88
2023-04-16T12:23:04.992Z,18.58
2023-04-16T12:24:09.114Z,18.70
2023-04-16T12:25:14.144Z,18.85
2023-04-16T12:26:18.404Z,19.01
2023-04-16T12:27:23.175Z,19.14
2023-04-16T12:28:30.447Z,19.05
2023-04-16T12:29:34.286Z,18.93
2023-04-16T12:30:50.598Z,18.71
2023-04-16T12:31:55.042Z,18.69
2023-04-16T12:33:16.020Z,18.48
2023-04-16T12:34:21.000Z,18.45
2023-04-16T12:35:35.088Z,18.16
2023-04-16T12:36:38.559Z,18.23
2023-04-16T12:37:42.631Z,17.97
2023-04-16T12:38:45.255Z,18.12
2023-04-16T12:39:48.637Z,18.16
2023-04-16T12:40:52.473Z,17.93
2023-04-16T12:41:55.199Z,17.99
2023-04-16T12:42:58.601Z,17.87
2023-04-16T12:44:07.195Z,17.91
2023-04-16T12:45:11.195Z,17.90
2023-04-16T12:46:15.136Z,18.17
2023-04-16T12:47:18.638Z,18.60
2023-04-16T12:48:21.055Z,18.70
2023-04-16T12:49:24.701Z,18.89
2023-04-16T12:50:28.706Z,18.76
2023-04-16T12:51:34.523Z,18.72
2023-04-16T12:52:37.486Z,19.01
2023-04-16T12:53:41.468Z,18.90
2023-04-16T12:54:45.257Z,18.86
2023-04-16T12:55:47.723Z,19.07
2023-04-16T12:56:51.312Z,18.82
2023-04-16T12:57:54.543Z,18.55
2023-04-16T12:58:58.459Z,18.62
2023-04-16T13:00:02.398Z,18.66
2023-04-16T13:01:04.880Z,18.44
2023-04-16T13:02:08.785Z,18.37
2023-04-16T13:03:11.349Z,18.17
2023-04-16T13:04:15.869Z,18.28
2023-04-16T13:05:20.114Z,18.16
2023-04-16T13:06:22.689Z,18.19
2023-04-16T13:07:28.288Z,18.21
2023-04-16T13:08:31.624Z,18.24
2023-04-16T13:09:34.974Z,18.16
2023-04-16T13:10:37.443Z,18.11
2023-04-16T13:11:40.883Z,18.36
2023-04-16T13:12:43.878Z,18.48
2023-04-16T13:13:47.279Z,18.46
2023-04-16T13:14:49.808Z,18.62
2023-04-16T13:15:53.426Z,18.84
2023-04-16T13:16:56.217Z,18.86
2023-04-16T13:17:59.870Z,18.90
2023-04-16T13:19:03.066Z,19.46
2023-04-16T13:20:08.054Z,19.15
2023-04-16T13:21:11.477Z,18.94
2023-04-16T13:22:14.270Z,19.02
2023-04-16T13:23:19.159Z,18.75
2023-04-16T13:24:23.289Z,18.74
2023-04-16T13:25:25.700Z,18.63
2023-04-16T13:26:29.304Z,18.75
2023-04-16T13:27:33.149Z,18.64
2023-04-16T13:28:36.632Z,18.83
2023-04-16T13:29:40.123Z,18.64
2023-04-16T13:30:44.260Z,18.50
2023-04-16T13:31:47.612Z,18.63
2023-04-16T13:32:51.907Z,18.83
2023-04-16T13:33:56.294Z,18.92
2023-04-16T13:34:59.578Z,19.16
2023-04-16T13:36:03.667Z,19.10
2023-04-16T13:37:06.380Z,19.11
2023-04-16T13:38:10.339Z,19.22
2023-04-16T13:39:16.334Z,19.27
2023-04-16T13:40:19.050Z,19.15
2023-04-16T13:41:22.469Z,19.06
2023-04-16T13:42:25.016Z,18.97
2023-04-16T13:43:28.452Z,18.87
2023-04-16T13:44:31.774Z,19.22
2023-04-16T13:45:34.112Z,19.32
2023-04-16T13:46:37.485Z,19.39
2023-04-16T13:47:41.993Z,19.45
2023-04-16T13:48:46.280Z,19.75
2023-04-16T13:49:49.800Z,19.90